createdAt,value
2017-07-20T00:00:27.733Z,0
2017-07-20T00:01:08.189Z,0
2017-07-20T00:01:48.642Z,0
2017-07-20T00:02:29.095Z,0
2017-07-20T00:03:09.548Z,0
2017-07-20T00:03:50.006Z,0
2017-07-20T00:04:30.457Z,0
2017-07-20T00:05:10.914Z,0
2017-07-20T00:05:51.374Z,0
2017-07-20T00:06:31.824Z,0
2017-07-20T00:07:12.282Z,0
2017-07-20T00:07:52.738Z,0
2017-07-20T00:08:33.161Z,0
2017-07-20T00:09:13.609Z,0
2017-07-20T00:09:54.060Z,0
2017-07-20T00:10:34.494Z,0
2017-07-20T00:11:14.955Z,0
2017-07-20T00:11:55.410Z,0
2017-07-20T00:12:35.864Z,0
2017-07-20T00:14:53.978Z,0
2017-07-20T00:15:34.431Z,0
2017-07-20T00:16:14.899Z,0
2017-07-20T00:16:55.355Z,0
2017-07-20T00:17:35.811Z,0
2017-07-20T00:18:16.264Z,0
2017-07-20T00:18:56.718Z,0
2017-07-20T00:19:37.176Z,0
2017-07-20T00:20:17.625Z,0
2017-07-20T00:20:58.079Z,0
2017-07-20T00:21:38.528Z,0
2017-07-20T00:22:18.979Z,0
2017-07-20T00:22:59.439Z,0
2017-07-20T00:23:39.887Z,0
2017-07-20T00:24:20.339Z,0
2017-07-20T00:25:00.792Z,0
2017-07-20T00:25:41.257Z,0
2017-07-20T00:26:21.712Z,0
2017-07-20T00:27:02.167Z,0
2017-07-20T00:27:42.676Z,0
2017-07-20T00:28:23.159Z,0
2017-07-20T00:29:03.610Z,0
2017-07-20T00:29:44.062Z,0
2017-07-20T00:30:24.520Z,0
2017-07-20T00:31:04.972Z,0
2017-07-20T00:31:45.422Z,0
2017-07-20T00:32:25.879Z,0
2017-07-20T00:33:06.337Z,0
2017-07-20T00:33:46.785Z,0
2017-07-20T00:34:27.231Z,0
2017-07-20T00:35:07.690Z,0
2017-07-20T00:35:48.140Z,0
2017-07-20T00:36:28.594Z,0
2017-07-20T00:37:09.045Z,0
2017-07-20T00:37:49.489Z,0
2017-07-20T00:38:29.944Z,0
2017-07-20T00:39:10.404Z,0
2017-07-20T00:39:50.856Z,0
2017-07-20T00:40:31.316Z,0
2017-07-20T00:41:11.774Z,0
2017-07-20T00:41:52.226Z,0
2017-07-20T00:42:32.678Z,0
2017-07-20T00:43:13.131Z,0
2017-07-20T00:43:53.588Z,0
2017-07-20T00:44:34.042Z,0
2017-07-20T00:45:14.498Z,0
2017-07-20T00:45:54.953Z,0
2017-07-20T00:46:35.408Z,0
2017-07-20T00:47:15.869Z,0
2017-07-20T00:47:56.320Z,0
2017-07-20T00:48:36.789Z,0
2017-07-20T00:49:17.243Z,0
2017-07-20T00:49:57.791Z,0
2017-07-20T00:50:38.249Z,0
2017-07-20T00:51:18.699Z,0
2017-07-20T00:51:59.149Z,0
2017-07-20T00:52:39.603Z,0
2017-07-20T00:53:20.056Z,0
2017-07-20T00:54:00.728Z,0
2017-07-20T00:54:41.183Z,0
2017-07-20T00:55:21.640Z,0
2017-07-20T00:56:02.096Z,0
2017-07-20T00:56:42.550Z,0
2017-07-20T00:57:23.010Z,0
2017-07-20T00:58:03.465Z,0
2017-07-20T00:58:43.919Z,0
2017-07-20T00:59:24.390Z,0
2017-07-20T01:00:04.849Z,0
2017-07-20T01:00:45.311Z,0
2017-07-20T01:01:25.764Z,0
2017-07-20T01:02:06.218Z,0
2017-07-20T01:02:46.669Z,0
2017-07-20T01:03:27.152Z,0
2017-07-20T01:04:07.616Z,0
2017-07-20T01:04:48.070Z,0
2017-07-20T01:05:28.524Z,0
2017-07-20T01:06:08.981Z,0
2017-07-20T01:06:49.431Z,0
2017-07-20T01:07:29.882Z,0
2017-07-20T01:08:10.349Z,0
2017-07-20T01:08:50.795Z,0
2017-07-20T01:09:31.240Z,0
2017-07-20T01:10:11.690Z,0
2017-07-20T01:10:52.154Z,0
2017-07-20T01:11:32.607Z,0
2017-07-20T01:12:13.065Z,0
2017-07-20T01:12:53.517Z,0
2017-07-20T01:13:33.968Z,0
2017-07-20T01:14:14.422Z,0
2017-07-20T01:14:54.883Z,0
2017-07-20T01:15:35.337Z,0
2017-07-20T01:16:15.791Z,0
2017-07-20T01:16:56.246Z,0
2017-07-20T01:17:36.702Z,0
2017-07-20T01:18:17.160Z,0
2017-07-20T01:18:57.614Z,0
2017-07-20T01:19:38.067Z,0
2017-07-20T01:20:18.521Z,0
2017-07-20T01:20:58.978Z,0
2017-07-20T01:21:39.430Z,0
2017-07-20T01:22:19.882Z,0
2017-07-20T01:23:00.338Z,0
2017-07-20T01:23:40.791Z,0
2017-07-20T01:24:21.252Z,0
2017-07-20T01:25:01.697Z,0
2017-07-20T01:25:42.166Z,0
2017-07-20T01:26:22.622Z,0
2017-07-20T01:27:03.080Z,0
2017-07-20T01:27:43.535Z,0
2017-07-20T01:28:23.979Z,0
2017-07-20T01:29:04.436Z,0
2017-07-20T01:29:44.942Z,0
2017-07-20T01:30:25.337Z,0
2017-07-20T01:31:05.792Z,0
2017-07-20T01:31:46.249Z,0
2017-07-20T01:32:26.708Z,0
2017-07-20T01:33:07.164Z,0
2017-07-20T01:33:47.620Z,0
2017-07-20T01:34:28.077Z,0
2017-07-20T01:35:08.519Z,0
2017-07-20T01:35:48.977Z,0
2017-07-20T01:36:29.436Z,0
2017-07-20T01:37:09.877Z,0
2017-07-20T01:37:50.333Z,0
2017-07-20T01:38:30.787Z,0
2017-07-20T01:39:11.240Z,0
2017-07-20T01:39:51.691Z,0
2017-07-20T01:40:32.145Z,0
2017-07-20T01:41:12.600Z,0
2017-07-20T01:41:53.061Z,0
2017-07-20T01:42:33.513Z,0
2017-07-20T01:43:13.961Z,0
2017-07-20T01:43:54.416Z,0
2017-07-20T01:44:34.872Z,0
2017-07-20T01:45:15.327Z,0
2017-07-20T01:45:55.786Z,0
2017-07-20T01:46:36.244Z,0
2017-07-20T01:47:16.697Z,0
2017-07-20T01:47:57.151Z,0
2017-07-20T01:48:37.605Z,0
2017-07-20T01:49:18.069Z,0
2017-07-20T01:49:58.514Z,0
2017-07-20T01:50:38.966Z,0
2017-07-20T01:51:19.428Z,0
2017-07-20T01:51:59.881Z,0
2017-07-20T01:52:40.333Z,0
2017-07-20T01:53:20.787Z,0
2017-07-20T01:54:01.240Z,0
2017-07-20T01:54:41.698Z,0
2017-07-20T01:55:22.172Z,0
2017-07-20T01:56:02.618Z,0
2017-07-20T01:56:43.073Z,0
2017-07-20T01:57:23.525Z,0
2017-07-20T01:58:03.981Z,0
2017-07-20T01:58:44.432Z,0
2017-07-20T01:59:24.879Z,0
2017-07-20T02:00:05.331Z,0
2017-07-20T02:00:45.788Z,0
2017-07-20T02:01:26.241Z,0
2017-07-20T02:02:06.694Z,0
2017-07-20T02:02:47.149Z,0
2017-07-20T02:03:27.602Z,0
2017-07-20T02:04:08.051Z,0
2017-07-20T02:04:48.515Z,0
2017-07-20T02:05:28.964Z,0
2017-07-20T02:06:09.421Z,0
2017-07-20T02:06:49.874Z,0
2017-07-20T02:07:30.334Z,0
2017-07-20T02:08:10.784Z,0
2017-07-20T02:08:51.228Z,0
2017-07-20T02:09:31.684Z,0
2017-07-20T02:10:12.137Z,0
2017-07-20T02:10:52.611Z,0
2017-07-20T02:11:33.050Z,0
2017-07-20T02:12:13.503Z,0
2017-07-20T02:12:53.953Z,0
2017-07-20T02:13:34.402Z,0
2017-07-20T02:14:14.853Z,0
2017-07-20T02:14:55.304Z,0
2017-07-20T02:15:35.770Z,0
2017-07-20T02:16:16.218Z,0
2017-07-20T02:16:56.678Z,0
2017-07-20T02:17:37.127Z,0
2017-07-20T02:18:17.579Z,0
2017-07-20T02:18:58.035Z,0
2017-07-20T02:19:38.501Z,0
2017-07-20T02:20:18.946Z,0
2017-07-20T02:20:59.411Z,0
2017-07-20T02:21:39.867Z,0
2017-07-20T02:22:20.321Z,0
2017-07-20T02:23:00.768Z,0
2017-07-20T02:23:41.219Z,0
2017-07-20T02:24:21.670Z,0
2017-07-20T02:25:02.126Z,0
2017-07-20T02:25:42.602Z,0
2017-07-20T02:26:23.036Z,0
2017-07-20T02:27:03.485Z,0
2017-07-20T02:27:43.932Z,0
2017-07-20T02:28:24.387Z,0
2017-07-20T02:29:04.836Z,0
2017-07-20T02:29:45.293Z,0
2017-07-20T02:30:25.749Z,0
2017-07-20T02:31:06.202Z,0
2017-07-20T02:31:46.656Z,0
2017-07-20T02:32:27.094Z,0
2017-07-20T02:33:07.548Z,0
2017-07-20T02:33:48.001Z,0
2017-07-20T02:36:05.951Z,0
2017-07-20T02:36:46.400Z,0
2017-07-20T02:37:26.851Z,0
2017-07-20T02:38:07.310Z,0
2017-07-20T02:38:47.768Z,0
2017-07-20T02:39:28.225Z,0
2017-07-20T02:40:08.677Z,0
2017-07-20T02:40:49.131Z,0
2017-07-20T02:41:29.579Z,0
2017-07-20T02:42:10.027Z,0
2017-07-20T02:42:50.479Z,0
2017-07-20T02:43:30.933Z,0
2017-07-20T02:44:11.384Z,0
2017-07-20T02:44:51.834Z,0
2017-07-20T02:45:32.287Z,0
2017-07-20T02:46:12.742Z,0
2017-07-20T02:46:53.209Z,0
2017-07-20T02:47:33.673Z,0
2017-07-20T02:48:14.120Z,0
2017-07-20T02:48:54.576Z,0
2017-07-20T02:49:35.029Z,0
2017-07-20T02:50:15.483Z,0
2017-07-20T02:50:55.936Z,0
2017-07-20T02:51:36.391Z,0
2017-07-20T02:52:16.856Z,0
2017-07-20T02:52:57.323Z,0
2017-07-20T02:53:37.773Z,0
2017-07-20T02:54:18.229Z,0
2017-07-20T02:54:58.697Z,0
2017-07-20T02:55:39.150Z,0
2017-07-20T02:56:19.603Z,0
2017-07-20T02:57:00.061Z,0
2017-07-20T02:57:40.523Z,0
2017-07-20T02:58:20.977Z,0
2017-07-20T02:59:01.428Z,0
2017-07-20T02:59:41.894Z,0
2017-07-20T03:00:22.345Z,0
2017-07-20T03:01:02.805Z,0
2017-07-20T03:01:43.253Z,0
2017-07-20T03:02:23.702Z,0
2017-07-20T03:03:04.155Z,0
2017-07-20T03:03:44.611Z,0
2017-07-20T03:04:25.062Z,0
2017-07-20T03:05:05.521Z,0
2017-07-20T03:05:45.979Z,0
2017-07-20T03:06:26.431Z,0
2017-07-20T03:07:06.884Z,0
2017-07-20T03:07:47.351Z,0
2017-07-20T03:08:27.802Z,0
2017-07-20T03:09:08.253Z,0
2017-07-20T03:09:48.705Z,0
2017-07-20T03:10:29.163Z,0
2017-07-20T03:11:09.620Z,0
2017-07-20T03:11:50.079Z,0
2017-07-20T03:12:30.527Z,0
2017-07-20T03:13:10.980Z,0
2017-07-20T03:13:51.432Z,0
2017-07-20T03:14:31.886Z,0
2017-07-20T03:15:12.334Z,0
2017-07-20T03:15:52.793Z,0
2017-07-20T03:16:33.247Z,0
2017-07-20T03:17:13.702Z,0
2017-07-20T03:17:54.224Z,0
2017-07-20T03:18:34.679Z,0
2017-07-20T03:19:15.135Z,0
2017-07-20T03:19:55.592Z,0
2017-07-20T03:20:36.055Z,0
2017-07-20T03:21:16.514Z,0
2017-07-20T03:21:56.969Z,0
2017-07-20T03:22:37.439Z,0
2017-07-20T03:23:17.894Z,0
2017-07-20T03:23:58.352Z,0
2017-07-20T03:24:38.809Z,0
2017-07-20T03:25:19.269Z,0
2017-07-20T03:25:59.745Z,0
2017-07-20T03:26:40.197Z,0
2017-07-20T03:27:20.650Z,0
2017-07-20T03:28:01.106Z,0
2017-07-20T03:28:41.565Z,0
2017-07-20T03:29:22.021Z,0
2017-07-20T03:30:02.478Z,0
2017-07-20T03:30:42.931Z,0
2017-07-20T03:31:23.386Z,0
2017-07-20T03:32:03.841Z,0
2017-07-20T03:32:44.302Z,0
2017-07-20T03:33:24.755Z,0
2017-07-20T03:34:05.217Z,0
2017-07-20T03:34:45.673Z,0
2017-07-20T03:35:26.125Z,0
2017-07-20T03:36:06.593Z,0
2017-07-20T03:36:47.049Z,0
2017-07-20T03:37:27.509Z,0
2017-07-20T03:38:07.970Z,0
2017-07-20T03:38:48.417Z,0
2017-07-20T03:39:28.872Z,0
2017-07-20T03:40:09.332Z,0
2017-07-20T03:40:49.787Z,0
2017-07-20T03:41:30.238Z,0
2017-07-20T03:42:10.695Z,0
2017-07-20T03:42:51.159Z,0
2017-07-20T03:43:31.607Z,0
2017-07-20T03:44:12.057Z,0
2017-07-20T03:44:52.525Z,0
2017-07-20T03:45:32.980Z,0
2017-07-20T03:46:13.435Z,0
2017-07-20T03:46:53.895Z,0
2017-07-20T03:47:34.357Z,0
2017-07-20T03:48:14.815Z,0
2017-07-20T03:48:55.272Z,0
2017-07-20T03:49:35.729Z,0
2017-07-20T03:50:16.183Z,0
2017-07-20T03:50:56.659Z,0
2017-07-20T03:51:37.147Z,0
2017-07-20T03:52:17.602Z,0
2017-07-20T03:52:58.058Z,0
2017-07-20T03:53:38.512Z,0
2017-07-20T03:54:18.965Z,0
2017-07-20T03:54:59.422Z,0
2017-07-20T03:55:39.877Z,0
2017-07-20T03:56:20.359Z,0
2017-07-20T03:57:00.800Z,0
2017-07-20T03:57:41.255Z,0
2017-07-20T03:58:21.706Z,0
2017-07-20T03:59:02.158Z,0
2017-07-20T03:59:42.635Z,0
2017-07-20T04:00:23.088Z,0
2017-07-20T04:01:03.536Z,0
2017-07-20T04:01:43.992Z,0
2017-07-20T04:02:24.451Z,0
2017-07-20T04:03:04.910Z,0
2017-07-20T04:03:45.372Z,0
2017-07-20T04:04:25.822Z,0
2017-07-20T04:05:06.274Z,0
2017-07-20T04:05:46.731Z,0
2017-07-20T04:06:27.181Z,0
2017-07-20T04:07:07.656Z,0
2017-07-20T04:07:48.122Z,0
2017-07-20T04:08:28.568Z,0
2017-07-20T04:09:09.024Z,0
2017-07-20T04:09:49.476Z,0
2017-07-20T04:10:29.927Z,0
2017-07-20T04:11:10.388Z,0
2017-07-20T04:11:50.919Z,0
2017-07-20T04:12:31.366Z,0
2017-07-20T04:13:11.810Z,0
2017-07-20T04:13:52.305Z,0
2017-07-20T04:14:32.715Z,0
2017-07-20T04:15:13.160Z,0
2017-07-20T04:15:53.620Z,0
2017-07-20T04:16:34.062Z,0
2017-07-20T04:17:14.517Z,0
2017-07-20T04:17:54.987Z,0
2017-07-20T04:18:35.423Z,0
2017-07-20T04:19:15.875Z,0
2017-07-20T04:19:56.515Z,0
2017-07-20T04:22:24.671Z,5
2017-07-20T04:23:05.118Z,5
2017-07-20T04:23:45.591Z,5
2017-07-20T04:24:26.037Z,5
2017-07-20T04:25:06.487Z,5
2017-07-20T04:25:46.942Z,5
2017-07-20T04:26:27.408Z,5
2017-07-20T04:27:07.972Z,5
2017-07-20T04:29:21.229Z,5
2017-07-20T04:30:01.665Z,5
2017-07-20T04:30:42.099Z,5
2017-07-20T04:31:22.554Z,5
2017-07-20T04:32:03.010Z,5
2017-07-20T04:32:43.464Z,5
2017-07-20T04:33:23.922Z,5
2017-07-20T04:34:04.366Z,5
2017-07-20T04:36:37.527Z,5
2017-07-20T04:37:17.984Z,5
2017-07-20T04:37:58.440Z,5
2017-07-20T04:38:38.899Z,0
2017-07-20T04:39:19.421Z,0
2017-07-20T04:39:59.870Z,0
2017-07-20T04:40:40.320Z,0
2017-07-20T04:41:20.773Z,0
2017-07-20T04:42:01.223Z,0
2017-07-20T04:42:41.668Z,0
2017-07-20T04:43:22.122Z,0
2017-07-20T04:44:02.579Z,0
2017-07-20T04:44:43.034Z,0
2017-07-20T04:45:23.552Z,0
2017-07-20T04:46:04.024Z,0
2017-07-20T04:46:44.484Z,0
2017-07-20T04:47:24.936Z,0
2017-07-20T04:48:05.404Z,0
2017-07-20T04:48:45.854Z,0
2017-07-20T04:49:26.305Z,0
2017-07-20T04:50:06.762Z,0
2017-07-20T04:50:47.219Z,0
2017-07-20T04:51:27.677Z,0
2017-07-20T04:52:08.126Z,0
2017-07-20T04:52:48.572Z,0
2017-07-20T04:53:29.036Z,0
2017-07-20T04:54:09.477Z,0
2017-07-20T04:54:49.934Z,0
2017-07-20T04:55:30.385Z,0
2017-07-20T04:56:10.845Z,0
2017-07-20T04:56:51.308Z,0
2017-07-20T04:57:31.757Z,0
2017-07-20T04:58:12.208Z,0
2017-07-20T04:58:52.705Z,0
2017-07-20T04:59:33.158Z,0
2017-07-20T05:00:13.612Z,0
2017-07-20T05:00:54.063Z,0
2017-07-20T05:01:34.520Z,0
2017-07-20T05:02:14.962Z,0
2017-07-20T05:02:55.421Z,0
2017-07-20T05:03:35.878Z,0
2017-07-20T05:04:16.335Z,0
2017-07-20T05:04:56.791Z,0
2017-07-20T05:05:37.241Z,0
2017-07-20T05:06:17.711Z,0
2017-07-20T05:06:58.269Z,0
2017-07-20T05:07:38.678Z,0
2017-07-20T05:08:19.132Z,0
2017-07-20T05:08:59.590Z,0
2017-07-20T05:09:40.032Z,0
2017-07-20T05:10:20.480Z,0
2017-07-20T05:11:00.934Z,0
2017-07-20T05:11:41.389Z,0
2017-07-20T05:12:21.836Z,0
2017-07-20T05:13:02.312Z,0
2017-07-20T05:13:42.767Z,0
2017-07-20T05:14:23.222Z,0
2017-07-20T05:15:03.680Z,0
2017-07-20T05:15:44.127Z,0
2017-07-20T05:16:24.580Z,0
2017-07-20T05:17:05.058Z,0
2017-07-20T05:17:45.514Z,0
2017-07-20T05:18:25.968Z,0
2017-07-20T05:19:06.428Z,0
2017-07-20T05:19:46.883Z,0
2017-07-20T05:20:27.339Z,0
2017-07-20T05:21:07.792Z,0
2017-07-20T05:21:48.242Z,0
2017-07-20T05:22:28.697Z,0
2017-07-20T05:23:09.150Z,0
2017-07-20T05:23:49.606Z,0
2017-07-20T05:24:30.059Z,0
2017-07-20T05:25:10.509Z,0
2017-07-20T05:25:50.965Z,0
2017-07-20T05:26:31.414Z,0
2017-07-20T05:27:11.869Z,0
2017-07-20T05:27:52.324Z,0
2017-07-20T05:28:32.777Z,0
2017-07-20T05:29:13.229Z,0
2017-07-20T05:29:53.677Z,0
2017-07-20T05:30:34.124Z,0
2017-07-20T05:31:14.580Z,0
2017-07-20T05:31:55.047Z,0
2017-07-20T05:32:35.501Z,0
2017-07-20T05:33:15.950Z,0
2017-07-20T05:33:56.408Z,0
2017-07-20T05:34:36.860Z,0
2017-07-20T05:35:17.316Z,0
2017-07-20T05:35:57.765Z,0
2017-07-20T05:36:38.221Z,0
2017-07-20T05:37:18.680Z,0
2017-07-20T05:37:59.130Z,0
2017-07-20T05:38:39.587Z,0
2017-07-20T05:39:20.049Z,5
2017-07-20T05:40:00.501Z,5
2017-07-20T05:40:40.952Z,5
2017-07-20T05:41:21.424Z,5
2017-07-20T05:42:01.856Z,5
2017-07-20T05:42:42.309Z,5
2017-07-20T05:43:22.768Z,5
2017-07-20T05:44:03.215Z,5
2017-07-20T05:44:43.668Z,5
2017-07-20T05:45:24.123Z,5
2017-07-20T05:46:04.579Z,5
2017-07-20T05:46:45.035Z,5
2017-07-20T05:47:25.504Z,5
2017-07-20T05:48:05.946Z,5
2017-07-20T05:48:46.400Z,5
2017-07-20T05:49:26.856Z,5
2017-07-20T05:50:07.314Z,10
2017-07-20T05:50:47.766Z,10
2017-07-20T05:51:28.218Z,10
2017-07-20T05:52:08.674Z,10
2017-07-20T05:52:49.197Z,10
2017-07-20T05:53:29.654Z,10
2017-07-20T05:54:10.110Z,10
2017-07-20T05:54:50.562Z,10
2017-07-20T05:55:31.023Z,10
2017-07-20T05:56:11.481Z,10
2017-07-20T05:56:51.937Z,10
2017-07-20T05:57:32.392Z,10
2017-07-20T05:58:12.849Z,10
2017-07-20T05:58:53.305Z,10
2017-07-20T05:59:33.759Z,10
2017-07-20T06:00:14.215Z,10
2017-07-20T06:00:54.672Z,10
2017-07-20T06:01:35.129Z,10
2017-07-20T06:02:15.590Z,10
2017-07-20T06:02:56.050Z,10
2017-07-20T06:03:36.498Z,10
2017-07-20T06:04:16.936Z,5
2017-07-20T06:04:57.390Z,5
2017-07-20T06:05:37.840Z,5
2017-07-20T06:06:18.298Z,5
2017-07-20T06:06:58.742Z,5
2017-07-20T06:07:39.318Z,5
2017-07-20T06:08:19.765Z,5
2017-07-20T06:09:00.219Z,5
2017-07-20T06:09:40.628Z,5
2017-07-20T06:10:21.073Z,5
2017-07-20T06:11:01.509Z,5
2017-07-20T06:11:41.903Z,5
2017-07-20T06:12:22.239Z,5
2017-07-20T06:13:02.682Z,5
2017-07-20T06:13:43.137Z,10
2017-07-20T06:14:23.659Z,10
2017-07-20T06:16:52.431Z,10
2017-07-20T06:17:32.877Z,10
2017-07-20T06:18:13.272Z,10
2017-07-20T06:18:53.680Z,10
2017-07-20T06:19:34.122Z,10
2017-07-20T06:20:14.472Z,10
2017-07-20T06:20:54.968Z,10
2017-07-20T06:21:35.404Z,10
2017-07-20T06:22:15.839Z,10
2017-07-20T06:22:56.331Z,10
2017-07-20T06:23:36.854Z,10
2017-07-20T06:24:17.337Z,10
2017-07-20T06:24:57.739Z,10
2017-07-20T06:25:38.241Z,10
2017-07-20T06:26:18.584Z,5
2017-07-20T06:26:58.980Z,5
2017-07-20T06:27:39.749Z,5
2017-07-20T06:29:57.652Z,5
2017-07-20T06:30:38.066Z,5
2017-07-20T06:31:18.492Z,5
2017-07-20T06:31:59.024Z,5
2017-07-20T06:32:39.430Z,5
2017-07-20T06:33:19.903Z,5
2017-07-20T06:34:00.307Z,5
2017-07-20T06:34:40.753Z,5
2017-07-20T06:35:21.102Z,5
2017-07-20T06:37:59.198Z,5
2017-07-20T06:38:39.631Z,5
2017-07-20T06:39:20.096Z,5
2017-07-20T06:40:00.571Z,5
2017-07-20T06:40:41.023Z,10
2017-07-20T06:41:21.479Z,10
2017-07-20T06:42:01.983Z,10
2017-07-20T06:42:42.435Z,10
2017-07-20T06:43:22.889Z,10
2017-07-20T06:44:03.337Z,10
2017-07-20T06:44:43.792Z,10
2017-07-20T06:45:24.249Z,10
2017-07-20T06:46:04.701Z,10
2017-07-20T06:46:45.158Z,10
2017-07-20T06:47:26.285Z,10
2017-07-20T06:48:06.750Z,10
2017-07-20T06:48:47.192Z,10
2017-07-20T06:49:27.642Z,10
2017-07-20T06:50:08.286Z,10
2017-07-20T06:50:48.740Z,10
2017-07-20T06:51:29.185Z,10
2017-07-20T06:52:09.631Z,10
2017-07-20T06:52:50.093Z,10
2017-07-20T06:53:30.536Z,10
2017-07-20T06:56:03.643Z,10
2017-07-20T06:56:44.056Z,10
2017-07-20T06:57:24.520Z,10
2017-07-20T06:58:04.887Z,10
2017-07-20T06:58:45.304Z,10
2017-07-20T06:59:25.749Z,10
2017-07-20T07:00:06.205Z,10
2017-07-20T07:00:46.672Z,10
2017-07-20T07:01:27.110Z,10
2017-07-20T07:02:07.559Z,10
2017-07-20T07:02:48.012Z,10
2017-07-20T07:03:28.462Z,10
2017-07-20T07:04:08.915Z,10
2017-07-20T07:04:49.377Z,10
2017-07-20T07:05:29.837Z,10
2017-07-20T07:06:10.286Z,10
2017-07-20T07:06:50.746Z,10
2017-07-20T07:07:31.203Z,10
2017-07-20T07:08:11.665Z,10
2017-07-20T07:08:52.134Z,10
2017-07-20T07:09:32.584Z,10
2017-07-20T07:10:13.031Z,10
2017-07-20T07:10:53.492Z,10
2017-07-20T07:11:33.943Z,10
2017-07-20T07:12:14.408Z,10
2017-07-20T07:12:54.856Z,10
2017-07-20T07:13:35.307Z,10
2017-07-20T07:14:15.756Z,10
2017-07-20T07:14:56.210Z,10
2017-07-20T07:15:36.652Z,10
2017-07-20T07:16:17.101Z,10
2017-07-20T07:16:57.545Z,10
2017-07-20T07:17:38.006Z,10
2017-07-20T07:18:18.447Z,10
2017-07-20T07:18:58.898Z,10
2017-07-20T07:19:39.354Z,10
2017-07-20T07:20:19.800Z,15
2017-07-20T07:21:00.247Z,15
2017-07-20T07:21:40.709Z,15
2017-07-20T07:22:21.164Z,15
2017-07-20T07:23:01.622Z,10
2017-07-20T07:23:42.066Z,10
2017-07-20T07:24:22.524Z,10
2017-07-20T07:25:02.985Z,10
2017-07-20T07:25:43.439Z,10
2017-07-20T07:26:23.902Z,10
2017-07-20T07:27:04.357Z,10
2017-07-20T07:27:44.803Z,10
2017-07-20T07:28:25.264Z,10
2017-07-20T07:29:05.713Z,10
2017-07-20T07:29:46.164Z,10
2017-07-20T07:30:26.615Z,10
2017-07-20T07:31:07.067Z,10
2017-07-20T07:31:47.522Z,10
2017-07-20T07:32:27.988Z,10
2017-07-20T07:33:08.436Z,10
2017-07-20T07:33:48.928Z,10
2017-07-20T07:34:29.327Z,10
2017-07-20T07:35:09.784Z,10
2017-07-20T07:35:50.244Z,10
2017-07-20T07:36:30.696Z,10
2017-07-20T07:37:11.158Z,10
2017-07-20T07:37:51.617Z,10
2017-07-20T07:38:32.070Z,10
2017-07-20T07:39:12.523Z,10
2017-07-20T07:39:53.015Z,10
2017-07-20T07:40:33.462Z,10
2017-07-20T07:41:13.915Z,10
2017-07-20T07:41:54.367Z,10
2017-07-20T07:42:34.819Z,10
2017-07-20T07:43:15.270Z,10
2017-07-20T07:43:55.719Z,10
2017-07-20T07:44:36.169Z,10
2017-07-20T07:45:16.607Z,10
2017-07-20T07:45:57.065Z,10
2017-07-20T07:46:37.515Z,10
2017-07-20T07:47:18.041Z,10
2017-07-20T07:47:58.786Z,10
2017-07-20T07:48:39.241Z,10
2017-07-20T07:49:19.685Z,10
2017-07-20T07:50:00.204Z,10
2017-07-20T07:50:40.590Z,10
2017-07-20T07:51:21.042Z,10
2017-07-20T07:52:01.497Z,10
2017-07-20T07:52:41.947Z,10
2017-07-20T07:53:22.401Z,10
2017-07-20T07:54:02.850Z,15
2017-07-20T07:54:43.309Z,15
2017-07-20T07:55:23.757Z,15
2017-07-20T07:56:04.214Z,15
2017-07-20T07:56:44.666Z,20
2017-07-20T07:57:25.121Z,20
2017-07-20T07:58:05.583Z,20
2017-07-20T07:58:46.022Z,25
2017-07-20T07:59:26.485Z,25
2017-07-20T08:00:06.941Z,30
2017-07-20T08:00:47.397Z,30
2017-07-20T08:01:27.855Z,35
2017-07-20T08:02:08.308Z,35
2017-07-20T08:02:48.763Z,35
2017-07-20T08:03:29.225Z,40
2017-07-20T08:04:09.675Z,45
2017-07-20T08:04:50.127Z,45
2017-07-20T08:05:30.581Z,50
2017-07-20T08:06:11.126Z,50
2017-07-20T08:06:51.484Z,60
2017-07-20T08:07:31.959Z,65
2017-07-20T08:08:12.414Z,70
2017-07-20T08:08:52.875Z,75
2017-07-20T08:09:33.336Z,55
2017-07-20T08:10:13.788Z,45
2017-07-20T08:10:54.243Z,45
2017-07-20T08:11:34.692Z,45
2017-07-20T08:12:15.143Z,45
2017-07-20T08:12:55.588Z,45
2017-07-20T08:13:36.042Z,45
2017-07-20T08:14:16.503Z,40
2017-07-20T08:14:56.962Z,40
2017-07-20T08:15:37.416Z,40
2017-07-20T08:16:17.879Z,35
2017-07-20T08:16:58.473Z,35
2017-07-20T08:17:39.104Z,35
2017-07-20T08:18:19.501Z,30
2017-07-20T08:18:59.967Z,30
2017-07-20T08:19:40.413Z,30
2017-07-20T08:20:20.868Z,30
2017-07-20T08:21:01.328Z,30
2017-07-20T08:21:41.758Z,30
2017-07-20T08:22:22.210Z,25
2017-07-20T08:23:02.666Z,25
2017-07-20T08:23:43.123Z,25
2017-07-20T08:24:23.574Z,25
2017-07-20T08:25:04.037Z,25
2017-07-20T08:25:44.482Z,25
2017-07-20T08:26:24.939Z,25
2017-07-20T08:27:05.404Z,25
2017-07-20T08:27:45.878Z,20
2017-07-20T08:28:26.284Z,20
2017-07-20T08:29:06.737Z,20
2017-07-20T08:29:47.194Z,20
2017-07-20T08:30:27.642Z,20
2017-07-20T08:31:08.081Z,20
2017-07-20T08:31:48.521Z,20
2017-07-20T08:32:29.020Z,20
2017-07-20T08:33:09.459Z,20
2017-07-20T08:33:50.215Z,20
2017-07-20T08:34:30.722Z,20
2017-07-20T08:35:11.174Z,25
2017-07-20T08:35:51.794Z,25
2017-07-20T08:36:32.260Z,25
2017-07-20T08:37:12.729Z,25
2017-07-20T08:37:53.147Z,25
2017-07-20T08:38:33.607Z,30
2017-07-20T08:39:14.061Z,30
2017-07-20T08:39:54.512Z,30
2017-07-20T08:40:34.968Z,30
2017-07-20T08:41:15.439Z,30
2017-07-20T08:41:56.056Z,35
2017-07-20T08:42:36.954Z,35
2017-07-20T08:43:17.416Z,35
2017-07-20T08:43:57.849Z,40
2017-07-20T08:44:38.300Z,40
2017-07-20T08:45:18.754Z,45
2017-07-20T08:45:59.205Z,45
2017-07-20T08:46:39.792Z,45
2017-07-20T08:47:20.244Z,60
2017-07-20T08:48:00.707Z,50
2017-07-20T08:48:41.164Z,35
2017-07-20T08:49:21.602Z,30
2017-07-20T08:50:02.745Z,25
2017-07-20T08:50:43.495Z,25
2017-07-20T08:51:23.726Z,25
2017-07-20T08:52:04.150Z,25
2017-07-20T08:52:44.602Z,25
2017-07-20T08:53:25.028Z,25
2017-07-20T08:54:05.451Z,25
2017-07-20T08:54:45.874Z,25
2017-07-20T08:55:26.246Z,25
2017-07-20T08:56:06.690Z,25
2017-07-20T08:56:47.165Z,25
2017-07-20T08:57:27.650Z,25
2017-07-20T08:58:08.110Z,25
2017-07-20T08:58:48.656Z,30
2017-07-20T09:01:21.838Z,40
2017-07-20T09:02:02.474Z,45
2017-07-20T09:04:20.678Z,50
2017-07-20T09:05:01.130Z,55
2017-07-20T09:05:41.584Z,50
2017-07-20T09:06:22.227Z,45
2017-07-20T09:07:02.662Z,35
2017-07-20T09:07:43.164Z,30
2017-07-20T09:08:23.625Z,30
2017-07-20T09:09:04.073Z,25
2017-07-20T09:09:44.512Z,25
2017-07-20T09:10:24.954Z,20
2017-07-20T09:11:05.407Z,20
2017-07-20T09:11:45.842Z,20
2017-07-20T09:12:26.292Z,20
2017-07-20T09:13:06.746Z,20
2017-07-20T09:13:47.204Z,20
2017-07-20T09:14:27.679Z,20
2017-07-20T09:15:08.132Z,25
2017-07-20T09:15:48.583Z,20
2017-07-20T09:16:29.037Z,20
2017-07-20T09:17:09.483Z,20
2017-07-20T09:17:49.934Z,20
2017-07-20T09:18:30.406Z,20
2017-07-20T09:19:10.845Z,20
2017-07-20T09:19:51.293Z,20
2017-07-20T09:20:31.742Z,20
2017-07-20T09:21:12.186Z,20
2017-07-20T09:21:52.640Z,20
2017-07-20T09:22:33.090Z,25
2017-07-20T09:23:13.540Z,25
2017-07-20T09:23:53.987Z,25
2017-07-20T09:24:34.446Z,30
2017-07-20T09:25:14.905Z,30
2017-07-20T09:25:55.359Z,30
2017-07-20T09:26:35.816Z,30
2017-07-20T09:27:16.283Z,30
2017-07-20T09:27:56.741Z,25
2017-07-20T09:28:37.197Z,25
2017-07-20T09:29:17.648Z,30
2017-07-20T09:29:58.102Z,30
2017-07-20T09:30:38.548Z,30
2017-07-20T09:31:18.998Z,35
2017-07-20T09:31:59.459Z,35
2017-07-20T09:32:39.907Z,40
2017-07-20T09:33:20.357Z,40
2017-07-20T09:34:00.808Z,40
2017-07-20T09:34:41.264Z,40
2017-07-20T09:35:21.738Z,45
2017-07-20T09:36:02.173Z,45
2017-07-20T09:36:42.631Z,45
2017-07-20T09:37:23.157Z,45
2017-07-20T09:38:03.528Z,50
2017-07-20T09:38:43.983Z,55
2017-07-20T09:39:24.446Z,65
2017-07-20T09:40:04.905Z,70
2017-07-20T09:40:45.357Z,80
2017-07-20T09:41:25.818Z,80
2017-07-20T09:42:06.267Z,70
2017-07-20T09:42:46.718Z,70
2017-07-20T09:43:27.180Z,70
2017-07-20T09:44:07.627Z,70
2017-07-20T09:44:48.080Z,60
2017-07-20T09:45:28.533Z,55
2017-07-20T09:46:08.991Z,60
2017-07-20T09:46:49.448Z,55
2017-07-20T09:47:29.905Z,60
2017-07-20T09:48:10.352Z,55
2017-07-20T09:48:50.805Z,60
2017-07-20T09:49:31.259Z,55
2017-07-20T09:50:11.715Z,50
2017-07-20T09:50:52.170Z,50
2017-07-20T09:51:32.625Z,50
2017-07-20T09:52:13.092Z,45
2017-07-20T09:52:53.527Z,40
2017-07-20T09:53:33.977Z,45
2017-07-20T09:54:14.439Z,45
2017-07-20T09:54:54.894Z,45
2017-07-20T09:55:35.348Z,45
2017-07-20T09:56:15.801Z,45
2017-07-20T09:56:56.251Z,50
2017-07-20T09:57:36.705Z,50
2017-07-20T09:58:17.159Z,50
2017-07-20T09:58:57.614Z,55
2017-07-20T09:59:38.073Z,70
2017-07-20T10:00:18.526Z,65
2017-07-20T10:00:58.984Z,55
2017-07-20T10:01:39.822Z,45
2017-07-20T10:02:20.273Z,35
2017-07-20T10:03:00.736Z,35
2017-07-20T10:03:41.189Z,35
2017-07-20T10:04:21.658Z,30
2017-07-20T10:05:02.116Z,30
2017-07-20T10:05:42.572Z,25
2017-07-20T10:06:23.025Z,25
2017-07-20T10:07:03.473Z,25
2017-07-20T10:07:43.919Z,25
2017-07-20T10:08:24.371Z,25
2017-07-20T10:09:04.822Z,25